Time;durP1;ratioP1;P1;durP2;ratioP2;P2;SDS_P1;SDS_P2;PMS_P1;PMS_P2;Temp;Humidity;BMP_temperature;BMP_pressure;BME280_temperature;BME280_humidity;BME280_pressure;Samples;Min_cycle;Max_cycle;Signal;HPM_P1;HPM_P2
2022/12/08 00:01:43;;;;;;;16.50;8.17;;;;;;;;;;5013933;28;20261;-67
2022/12/08 00:04:09;;;;;;;14.33;7.60;;;;;;;;;;5031235;28;20208;-67
2022/12/08 00:09:36;;;;;;;17.23;9.10;;;;;;;;;;5037402;28;20197;-68
2022/12/08 00:12:04;;;;;;;16.97;9.03;;;;;;;;;;5026526;28;20189;-67
2022/12/08 00:14:35;;;;;;;19.17;10.37;;;;;;;;;;5033388;28;20321;-67
2022/12/08 00:17:02;;;;;;;18.27;10.10;;;;;;;;;;5037210;28;20184;-67
2022/12/08 00:19:28;;;;;;;19.37;11.63;;;;;;;;;;5035471;28;20273;-66
2022/12/08 00:21:54;;;;;;;23.00;11.07;;;;;;;;;;5028050;28;20548;-67
2022/12/08 00:24:20;;;;;;;19.50;10.97;;;;;;;;;;5024747;28;20666;-67
2022/12/08 00:26:46;;;;;;;22.23;11.60;;;;;;;;;;5040762;28;20212;-67
2022/12/08 00:29:12;;;;;;;18.93;10.90;;;;;;;;;;5033610;28;20170;-67
2022/12/08 00:31:38;;;;;;;17.53;11.00;;;;;;;;;;5027756;28;20196;-66
2022/12/08 00:34:03;;;;;;;20.93;11.80;;;;;;;;;;5035340;28;20181;-67
2022/12/08 00:36:29;;;;;;;20.53;11.93;;;;;;;;;;5026344;28;20182;-67
2022/12/08 00:38:55;;;;;;;21.67;13.33;;;;;;;;;;5024856;28;20532;-67
2022/12/08 00:42:10;;;;;;;23.23;13.00;;;;;;;;;;5032855;28;20265;-67
2022/12/08 00:44:08;;;;;;;21.70;13.57;;;;;;;;;;5028304;28;20222;-67
2022/12/08 00:46:34;;;;;;;19.27;12.43;;;;;;;;;;5026401;28;20190;-67
2022/12/08 00:48:59;;;;;;;24.93;13.40;;;;;;;;;;5037361;28;20572;-67
2022/12/08 00:51:25;;;;;;;20.60;11.47;;;;;;;;;;5010683;28;20187;-66
2022/12/08 00:53:50;;;;;;;22.30;11.97;;;;;;;;;;5020898;28;20206;-67
2022/12/08 00:56:15;;;;;;;24.10;11.83;;;;;;;;;;5009017;28;20188;-67
2022/12/08 00:58:41;;;;;;;24.80;11.57;;;;;;;;;;5023087;28;20602;-67
2022/12/08 01:01:10;;;;;;;17.03;11.20;;;;;;;;;;5024213;28;20594;-67
2022/12/08 01:03:36;;;;;;;18.73;11.93;;;;;;;;;;5027501;28;20187;-67
2022/12/08 01:06:03;;;;;;;19.57;11.37;;;;;;;;;;5016034;28;20182;-67
2022/12/08 01:08:28;;;;;;;20.67;11.73;;;;;;;;;;5027648;28;20331;-67
2022/12/08 01:10:53;;;;;;;15.00;9.93;;;;;;;;;;5025211;28;20264;-67
2022/12/08 01:13:19;;;;;;;19.33;11.80;;;;;;;;;;5035910;28;20189;-67
2022/12/08 01:15:44;;;;;;;21.63;12.13;;;;;;;;;;5019205;28;20183;-67
2022/12/08 01:18:09;;;;;;;21.47;11.53;;;;;;;;;;5028198;28;20178;-67
2022/12/08 01:20:35;;;;;;;15.07;10.10;;;;;;;;;;5025438;28;20261;-67
2022/12/08 01:23:00;;;;;;;15.47;11.63;;;;;;;;;;5027342;28;20177;-67
2022/12/08 01:25:25;;;;;;;21.07;11.10;;;;;;;;;;5020041;28;20227;-67
2022/12/08 01:27:52;;;;;;;17.40;10.33;;;;;;;;;;5009440;28;20631;-68
2022/12/08 01:30:18;;;;;;;21.10;11.43;;;;;;;;;;5019312;28;20313;-67
2022/12/08 01:32:44;;;;;;;20.20;11.10;;;;;;;;;;5019437;28;20182;-68
2022/12/08 01:35:09;;;;;;;17.13;10.77;;;;;;;;;;5022061;28;20169;-67
2022/12/08 01:37:34;;;;;;;19.33;11.13;;;;;;;;;;5017641;28;20179;-67
2022/12/08 01:40:00;;;;;;;21.37;11.97;;;;;;;;;;5014036;28;20190;-67
2022/12/08 01:42:25;;;;;;;18.93;11.83;;;;;;;;;;5023679;28;20186;-67
2022/12/08 01:45:03;;;;;;;19.00;11.40;;;;;;;;;;5022023;28;20190;-67
2022/12/08 01:47:39;;;;;;;16.50;10.87;;;;;;;;;;5022591;28;20550;-67
2022/12/08 01:50:07;;;;;;;19.73;12.03;;;;;;;;;;5022723;28;20268;-67
2022/12/08 01:53:02;;;;;;;18.33;12.00;;;;;;;;;;5026489;28;20209;-67
2022/12/08 01:55:49;;;;;;;21.27;12.13;;;;;;;;;;5025146;28;20202;-67
2022/12/08 01:58:20;;;;;;;22.40;11.07;;;;;;;;;;5028546;28;20400;-67
2022/12/08 02:00:46;;;;;;;19.63;11.70;;;;;;;;;;5041867;28;20251;-67
2022/12/08 02:03:27;;;;;;;18.67;11.73;;;;;;;;;;5024137;28;20186;-67
2022/12/08 02:05:53;;;;;;;16.30;10.90;;;;;;;;;;5031601;28;20308;-67
2022/12/08 02:08:19;;;;;;;18.87;10.50;;;;;;;;;;5031723;28;20227;-67
2022/12/08 02:10:46;;;;;;;17.23;10.53;;;;;;;;;;5021652;28;20701;-67
2022/12/08 02:13:16;;;;;;;18.50;11.07;;;;;;;;;;5024028;28;20208;-67
2022/12/08 02:15:50;;;;;;;17.37;11.20;;;;;;;;;;5021351;28;20217;-67
2022/12/08 02:18:31;;;;;;;17.40;11.27;;;;;;;;;;5030332;28;20200;-67
2022/12/08 02:21:20;;;;;;;16.00;11.80;;;;;;;;;;5020249;28;20273;-67
2022/12/08 02:23:58;;;;;;;22.57;11.63;;;;;;;;;;5030789;28;20679;-67
2022/12/08 02:26:42;;;;;;;19.17;12.73;;;;;;;;;;5020139;28;20175;-67
2022/12/08 02:29:41;;;;;;;22.40;12.70;;;;;;;;;;5016514;28;20339;-67
2022/12/08 02:32:30;;;;;;;18.03;12.80;;;;;;;;;;5022518;28;20206;-67
2022/12/08 02:35:09;;;;;;;21.97;13.80;;;;;;;;;;5023279;28;20553;-67
2022/12/08 02:37:54;;;;;;;21.50;13.53;;;;;;;;;;5021732;28;20280;-67
2022/12/08 02:40:38;;;;;;;22.83;14.20;;;;;;;;;;5020350;28;20222;-67
2022/12/08 02:43:16;;;;;;;20.67;13.40;;;;;;;;;;5015009;28;20644;-67
2022/12/08 02:45:51;;;;;;;24.33;15.53;;;;;;;;;;5014537;28;20199;-67
2022/12/08 02:48:16;;;;;;;25.80;14.70;;;;;;;;;;5019135;28;20208;-67
2022/12/08 02:50:42;;;;;;;20.60;14.43;;;;;;;;;;5028987;28;20268;-67
2022/12/08 02:53:08;;;;;;;22.87;14.50;;;;;;;;;;5036831;28;20880;-67
2022/12/08 02:56:01;;;;;;;27.00;15.70;;;;;;;;;;5038276;28;20290;-67
2022/12/08 02:58:29;;;;;;;26.70;14.77;;;;;;;;;;4998330;28;20194;-67
2022/12/08 03:01:09;;;;;;;19.53;14.13;;;;;;;;;;5024948;28;20682;-67
2022/12/08 03:04:07;;;;;;;23.50;15.03;;;;;;;;;;5025453;28;20185;-67
2022/12/08 03:07:03;;;;;;;22.20;14.00;;;;;;;;;;5012552;28;20201;-67
2022/12/08 03:09:41;;;;;;;23.53;14.10;;;;;;;;;;5016335;28;20278;-67
2022/12/08 03:12:30;;;;;;;22.20;14.33;;;;;;;;;;5022166;28;20648;-67
2022/12/08 03:15:02;;;;;;;21.90;14.20;;;;;;;;;;5020944;28;20257;-67
2022/12/08 03:17:30;;;;;;;24.37;14.23;;;;;;;;;;5018820;28;20185;-67
2022/12/08 03:19:58;;;;;;;20.53;14.27;;;;;;;;;;5025892;28;20852;-67
2022/12/08 03:22:25;;;;;;;21.23;14.20;;;;;;;;;;5025437;28;20274;-67
2022/12/08 03:24:52;;;;;;;22.27;14.63;;;;;;;;;;5028847;28;20575;-67
2022/12/08 03:27:23;;;;;;;22.67;14.33;;;;;;;;;;5017910;28;20257;-67
2022/12/08 03:29:51;;;;;;;22.07;14.57;;;;;;;;;;5023102;28;20205;-67
2022/12/08 03:32:38;;;;;;;23.90;14.67;;;;;;;;;;5023276;28;20179;-67
2022/12/08 03:35:10;;;;;;;20.17;13.37;;;;;;;;;;5031049;28;20247;-67
2022/12/08 03:37:38;;;;;;;22.17;13.33;;;;;;;;;;5034647;28;20244;-67
2022/12/08 03:40:06;;;;;;;19.37;14.33;;;;;;;;;;5033900;28;20209;-66
2022/12/08 03:42:31;;;;;;;21.20;13.97;;;;;;;;;;5032836;28;20172;-66
2022/12/08 03:44:57;;;;;;;19.83;13.93;;;;;;;;;;5035517;28;20201;-67
2022/12/08 03:47:22;;;;;;;23.10;13.90;;;;;;;;;;5018496;28;20187;-66
2022/12/08 03:49:47;;;;;;;21.77;14.87;;;;;;;;;;5029463;28;20185;-66
2022/12/08 03:52:13;;;;;;;21.87;14.70;;;;;;;;;;5018475;28;20280;-66
2022/12/08 03:54:38;;;;;;;24.67;15.43;;;;;;;;;;5022862;28;20262;-66
2022/12/08 03:57:03;;;;;;;19.67;14.30;;;;;;;;;;5022185;28;20341;-66
2022/12/08 03:59:29;;;;;;;26.07;15.30;;;;;;;;;;5025483;28;20255;-66
2022/12/08 04:01:54;;;;;;;22.57;15.07;;;;;;;;;;5019356;28;20238;-66
2022/12/08 04:04:19;;;;;;;20.33;14.87;;;;;;;;;;5030092;28;20656;-67
2022/12/08 04:06:45;;;;;;;23.80;15.07;;;;;;;;;;5025411;28;20198;-67
2022/12/08 04:09:10;;;;;;;15.37;12.33;;;;;;;;;;5029377;28;20179;-67
2022/12/08 04:11:35;;;;;;;17.57;12.47;;;;;;;;;;5023924;28;20641;-68
2022/12/08 04:14:01;;;;;;;16.77;11.43;;;;;;;;;;5030736;28;20428;-69
2022/12/08 04:16:27;;;;;;;14.17;10.30;;;;;;;;;;5025164;28;20186;-68
2022/12/08 04:18:52;;;;;;;15.30;9.90;;;;;;;;;;5028067;28;20810;-69
2022/12/08 04:21:18;;;;;;;13.27;10.03;;;;;;;;;;5024032;28;20265;-69
2022/12/08 04:23:44;;;;;;;14.07;10.20;;;;;;;;;;5027421;28;20289;-71
2022/12/08 04:26:10;;;;;;;13.33;10.77;;;;;;;;;;5025896;28;20544;-70
2022/12/08 04:28:35;;;;;;;13.23;10.33;;;;;;;;;;5023717;28;20209;-68
2022/12/08 04:31:01;;;;;;;13.23;10.13;;;;;;;;;;5018660;28;20194;-68
2022/12/08 04:33:26;;;;;;;15.73;11.10;;;;;;;;;;5015346;28;20170;-68
2022/12/08 04:35:52;;;;;;;16.17;10.73;;;;;;;;;;5026308;28;20186;-68
2022/12/08 04:38:17;;;;;;;14.27;10.27;;;;;;;;;;5011368;28;20511;-68
2022/12/08 04:40:42;;;;;;;16.03;11.20;;;;;;;;;;5023335;28;20178;-68
2022/12/08 04:43:08;;;;;;;17.17;12.57;;;;;;;;;;5021856;28;20708;-68
2022/12/08 04:45:33;;;;;;;16.77;12.17;;;;;;;;;;5026210;28;20504;-67
2022/12/08 04:48:00;;;;;;;16.73;12.30;;;;;;;;;;5019031;28;20273;-67
2022/12/08 04:50:26;;;;;;;16.23;12.93;;;;;;;;;;5027671;28;20186;-67
2022/12/08 04:52:52;;;;;;;19.63;13.23;;;;;;;;;;5018541;28;20191;-68
2022/12/08 04:55:17;;;;;;;19.93;14.10;;;;;;;;;;5017810;28;20532;-67
2022/12/08 04:57:42;;;;;;;18.73;13.60;;;;;;;;;;5024073;28;20178;-68
2022/12/08 05:00:09;;;;;;;18.33;13.53;;;;;;;;;;5021567;28;20268;-67
2022/12/08 05:02:34;;;;;;;21.80;14.47;;;;;;;;;;5015080;28;20591;-68
2022/12/08 05:05:00;;;;;;;20.77;14.27;;;;;;;;;;5023756;28;20244;-67
2022/12/08 05:07:26;;;;;;;19.03;12.83;;;;;;;;;;5013978;28;20293;-67
2022/12/08 05:09:51;;;;;;;21.60;13.97;;;;;;;;;;5025619;28;20186;-68
2022/12/08 05:12:16;;;;;;;19.70;13.63;;;;;;;;;;5015473;28;20286;-68
2022/12/08 05:14:42;;;;;;;19.53;13.40;;;;;;;;;;5031382;28;20235;-67
2022/12/08 05:17:07;;;;;;;19.43;13.70;;;;;;;;;;5035193;28;20185;-67
2022/12/08 05:19:32;;;;;;;20.43;13.63;;;;;;;;;;5025588;28;20292;-67
2022/12/08 05:21:58;;;;;;;19.33;13.27;;;;;;;;;;5018224;28;20190;-67
2022/12/08 05:24:23;;;;;;;19.13;13.70;;;;;;;;;;5020247;28;20189;-67
2022/12/08 05:26:49;;;;;;;20.07;13.23;;;;;;;;;;5021089;28;20187;-67
2022/12/08 05:29:14;;;;;;;21.30;13.87;;;;;;;;;;5012825;28;20289;-67
2022/12/08 05:31:39;;;;;;;21.17;13.43;;;;;;;;;;5015145;28;20194;-68
2022/12/08 05:34:05;;;;;;;19.63;12.67;;;;;;;;;;5011740;28;20244;-67
2022/12/08 05:36:30;;;;;;;20.83;13.37;;;;;;;;;;5022219;28;20194;-68
2022/12/08 05:38:57;;;;;;;21.60;13.27;;;;;;;;;;5034272;28;20183;-67
2022/12/08 05:41:22;;;;;;;19.93;12.90;;;;;;;;;;5024427;28;20185;-68
2022/12/08 05:43:48;;;;;;;19.33;13.00;;;;;;;;;;5024310;28;20174;-67
2022/12/08 05:46:14;;;;;;;17.57;11.73;;;;;;;;;;5032255;28;20262;-68
2022/12/08 05:48:39;;;;;;;18.17;12.27;;;;;;;;;;5018526;28;20222;-68
2022/12/08 05:51:13;;;;;;;15.27;11.07;;;;;;;;;;5024746;28;20592;-67
2022/12/08 05:53:38;;;;;;;16.03;11.03;;;;;;;;;;5025676;28;20193;-67
2022/12/08 05:56:03;;;;;;;16.17;10.87;;;;;;;;;;5028417;28;20204;-67
2022/12/08 05:58:29;;;;;;;13.67;10.20;;;;;;;;;;5015842;28;20321;-67
2022/12/08 06:00:54;;;;;;;15.27;10.50;;;;;;;;;;5025882;28;20515;-67
2022/12/08 06:03:19;;;;;;;13.87;10.23;;;;;;;;;;5026938;28;20193;-67
2022/12/08 06:05:45;;;;;;;16.03;9.77;;;;;;;;;;5015362;28;20190;-67
2022/12/08 06:08:12;;;;;;;14.77;10.57;;;;;;;;;;5008824;28;20198;-68
2022/12/08 06:10:38;;;;;;;12.87;9.20;;;;;;;;;;5014542;28;20749;-68
2022/12/08 06:13:04;;;;;;;13.20;9.63;;;;;;;;;;5012708;28;20266;-69
2022/12/08 06:15:29;;;;;;;11.50;8.57;;;;;;;;;;5016588;28;20842;-68
2022/12/08 06:17:54;;;;;;;14.10;9.50;;;;;;;;;;5020556;28;20701;-69
2022/12/08 06:20:20;;;;;;;13.13;9.27;;;;;;;;;;5031115;28;20288;-69
2022/12/08 06:22:45;;;;;;;13.80;9.17;;;;;;;;;;5020937;28;20213;-68
2022/12/08 06:25:10;;;;;;;14.13;8.80;;;;;;;;;;5025721;28;20271;-69
2022/12/08 06:27:36;;;;;;;11.97;8.20;;;;;;;;;;5010162;28;20211;-68
2022/12/08 06:30:01;;;;;;;10.57;7.73;;;;;;;;;;5012157;28;20633;-68
2022/12/08 06:32:27;;;;;;;12.07;8.10;;;;;;;;;;5009267;28;20183;-68
2022/12/08 06:34:52;;;;;;;10.27;7.67;;;;;;;;;;5009729;28;20179;-68
2022/12/08 06:37:18;;;;;;;9.77;7.23;;;;;;;;;;5013941;28;20183;-68
2022/12/08 06:39:43;;;;;;;11.63;8.23;;;;;;;;;;5014165;28;20190;-68
2022/12/08 06:44:52;;;;;;;11.40;8.33;;;;;;;;;;5032760;28;20213;-68
2022/12/08 06:47:20;;;;;;;11.30;8.00;;;;;;;;;;5023230;28;20214;-68
2022/12/08 06:49:45;;;;;;;11.67;8.40;;;;;;;;;;5027969;28;20186;-68
2022/12/08 06:52:10;;;;;;;13.13;8.70;;;;;;;;;;5024723;28;20509;-68
2022/12/08 06:54:36;;;;;;;11.57;8.77;;;;;;;;;;5019817;28;20213;-68
2022/12/08 06:57:01;;;;;;;12.33;8.60;;;;;;;;;;5023379;28;20243;-68
2022/12/08 06:59:26;;;;;;;10.43;8.37;;;;;;;;;;5035772;28;20205;-69
2022/12/08 07:01:52;;;;;;;15.13;9.03;;;;;;;;;;5028808;28;20296;-68
2022/12/08 07:04:17;;;;;;;12.53;8.83;;;;;;;;;;5029759;28;20192;-68
2022/12/08 07:06:42;;;;;;;14.70;8.93;;;;;;;;;;5023615;28;20605;-68
2022/12/08 07:09:08;;;;;;;11.87;9.17;;;;;;;;;;5021217;28;20237;-68
2022/12/08 07:11:33;;;;;;;14.03;11.47;;;;;;;;;;5029483;28;20652;-68
2022/12/08 07:13:59;;;;;;;13.50;10.53;;;;;;;;;;5023118;28;20198;-68
2022/12/08 07:16:24;;;;;;;12.77;9.60;;;;;;;;;;5035134;28;20228;-68
2022/12/08 07:18:49;;;;;;;14.07;9.70;;;;;;;;;;5028046;28;20532;-67
2022/12/08 07:21:16;;;;;;;12.17;9.07;;;;;;;;;;5034313;28;20194;-67
2022/12/08 07:23:45;;;;;;;15.00;10.63;;;;;;;;;;5021886;28;20333;-68
2022/12/08 07:26:11;;;;;;;14.77;10.27;;;;;;;;;;5028740;28;20190;-68
2022/12/08 07:28:39;;;;;;;14.43;9.60;;;;;;;;;;5025809;28;20202;-68
2022/12/08 07:31:05;;;;;;;16.37;10.40;;;;;;;;;;5039388;28;20621;-68
2022/12/08 07:33:31;;;;;;;13.77;9.83;;;;;;;;;;5016794;28;20182;-68
2022/12/08 07:36:01;;;;;;;15.67;10.57;;;;;;;;;;5022742;28;20194;-68
2022/12/08 07:38:27;;;;;;;15.80;10.50;;;;;;;;;;5015137;28;20179;-69
2022/12/08 07:40:53;;;;;;;13.37;10.30;;;;;;;;;;5008891;28;20202;-68
2022/12/08 07:43:19;;;;;;;15.23;10.27;;;;;;;;;;5013531;28;20187;-67
2022/12/08 07:45:45;;;;;;;13.27;10.37;;;;;;;;;;5017685;28;20193;-68
2022/12/08 07:48:10;;;;;;;15.93;10.97;;;;;;;;;;5014541;28;20666;-68
2022/12/08 07:50:36;;;;;;;15.50;10.67;;;;;;;;;;5011721;28;21013;-69
2022/12/08 07:53:01;;;;;;;13.47;10.33;;;;;;;;;;5011071;28;20186;-68
2022/12/08 07:55:27;;;;;;;14.90;10.40;;;;;;;;;;5013342;28;20545;-67
2022/12/08 07:57:52;;;;;;;15.10;11.00;;;;;;;;;;5011127;28;20229;-68
2022/12/08 08:00:18;;;;;;;15.57;10.90;;;;;;;;;;5023368;28;20199;-68
2022/12/08 08:02:44;;;;;;;18.43;10.97;;;;;;;;;;5016878;28;20234;-68
2022/12/08 08:05:13;;;;;;;15.03;10.00;;;;;;;;;;5015793;28;20190;-68
2022/12/08 08:07:42;;;;;;;17.83;9.43;;;;;;;;;;5013139;28;20218;-68
2022/12/08 08:10:08;;;;;;;12.33;8.90;;;;;;;;;;5008825;28;20191;-68
2022/12/08 08:12:33;;;;;;;11.90;9.30;;;;;;;;;;4322064;28;10000827;-68
2022/12/08 08:15:00;;;;;;;13.20;9.97;;;;;;;;;;5027913;28;20617;-68
2022/12/08 08:17:25;;;;;;;16.33;9.93;;;;;;;;;;5026013;28;20642;-68
2022/12/08 08:19:51;;;;;;;14.13;9.63;;;;;;;;;;5021230;28;20185;-68
2022/12/08 08:22:16;;;;;;;13.47;9.27;;;;;;;;;;5022102;28;20196;-68
2022/12/08 08:24:41;;;;;;;12.23;9.70;;;;;;;;;;5023915;28;20936;-67
2022/12/08 08:27:07;;;;;;;13.67;9.40;;;;;;;;;;5024482;28;20336;-68
2022/12/08 08:29:32;;;;;;;12.60;9.10;;;;;;;;;;5021885;28;20185;-68
2022/12/08 08:31:58;;;;;;;12.10;9.00;;;;;;;;;;5024074;28;20186;-68
2022/12/08 08:34:23;;;;;;;12.53;8.90;;;;;;;;;;5017687;28;20305;-68
2022/12/08 08:36:49;;;;;;;14.43;8.90;;;;;;;;;;5020221;28;20277;-66
2022/12/08 08:39:14;;;;;;;12.20;9.03;;;;;;;;;;5021432;28;20742;-66
2022/12/08 08:41:40;;;;;;;12.73;8.97;;;;;;;;;;5020560;28;20764;-66
2022/12/08 08:44:05;;;;;;;11.90;9.07;;;;;;;;;;5017307;28;20192;-67
2022/12/08 08:46:30;;;;;;;10.83;8.73;;;;;;;;;;5023439;28;20583;-67
2022/12/08 08:48:56;;;;;;;12.20;8.07;;;;;;;;;;5032959;28;20235;-66
2022/12/08 08:51:22;;;;;;;10.83;7.97;;;;;;;;;;5023967;28;20179;-66
2022/12/08 08:53:47;;;;;;;15.30;8.90;;;;;;;;;;5016718;28;20178;-69
2022/12/08 08:56:19;;;;;;;8.83;6.57;;;;;;;;;;5027468;28;20170;-66
2022/12/08 08:58:47;;;;;;;9.90;5.23;;;;;;;;;;5016874;28;20199;-66
2022/12/08 09:01:21;;;;;;;9.47;5.80;;;;;;;;;;5013608;28;20571;-69
2022/12/08 09:03:47;;;;;;;9.67;6.23;;;;;;;;;;5013279;28;20633;-67
2022/12/08 09:06:13;;;;;;;9.23;5.93;;;;;;;;;;5016939;28;20186;-67
2022/12/08 09:08:40;;;;;;;8.20;6.03;;;;;;;;;;5021323;28;20215;-66
2022/12/08 09:11:05;;;;;;;12.60;7.10;;;;;;;;;;5008517;28;20218;-68
2022/12/08 09:13:31;;;;;;;11.83;7.10;;;;;;;;;;5007814;28;20178;-66
2022/12/08 09:15:56;;;;;;;9.67;6.23;;;;;;;;;;5006912;28;20390;-67
2022/12/08 09:18:21;;;;;;;9.53;5.00;;;;;;;;;;5010330;28;20249;-69
2022/12/08 09:20:47;;;;;;;10.97;5.60;;;;;;;;;;5011005;28;20675;-68
2022/12/08 09:23:13;;;;;;;5.87;4.20;;;;;;;;;;5012738;28;20178;-68
2022/12/08 09:25:38;;;;;;;9.13;4.50;;;;;;;;;;5009748;28;20175;-67
2022/12/08 09:28:04;;;;;;;6.00;4.33;;;;;;;;;;5011468;28;20783;-67
2022/12/08 09:30:29;;;;;;;5.07;4.10;;;;;;;;;;5012274;28;20183;-68
2022/12/08 09:32:54;;;;;;;6.33;3.20;;;;;;;;;;5008488;28;20314;-67
2022/12/08 09:35:20;;;;;;;5.87;3.60;;;;;;;;;;5025294;28;20182;-68
2022/12/08 09:37:45;;;;;;;7.10;3.73;;;;;;;;;;5012056;28;20186;-68
2022/12/08 09:40:17;;;;;;;7.73;3.50;;;;;;;;;;5010790;28;20178;-68
2022/12/08 09:43:09;;;;;;;5.20;2.73;;;;;;;;;;5009704;28;20167;-67
2022/12/08 09:45:35;;;;;;;4.27;2.73;;;;;;;;;;5013111;28;20170;-68
2022/12/08 09:48:13;;;;;;;3.97;2.40;;;;;;;;;;5009855;28;20206;-68
2022/12/08 09:50:55;;;;;;;5.57;2.37;;;;;;;;;;5008449;28;20554;-68
2022/12/08 09:53:25;;;;;;;6.77;3.23;;;;;;;;;;5022150;28;20277;-67
2022/12/08 09:56:05;;;;;;;5.30;2.30;;;;;;;;;;5012811;28;20785;-68
2022/12/08 09:59:15;;;;;;;4.43;2.67;;;;;;;;;;5011878;28;20535;-68
2022/12/08 10:01:40;;;;;;;10.53;2.43;;;;;;;;;;5009280;28;20237;-67
2022/12/08 10:04:31;;;;;;;4.47;1.50;;;;;;;;;;5012018;28;20535;-68
2022/12/08 10:07:06;;;;;;;3.53;1.30;;;;;;;;;;5009498;28;20239;-68
2022/12/08 10:09:44;;;;;;;4.80;1.30;;;;;;;;;;5014191;28;20182;-67
2022/12/08 10:12:26;;;;;;;3.90;1.40;;;;;;;;;;5029746;28;20680;-68
2022/12/08 10:15:09;;;;;;;3.00;1.60;;;;;;;;;;5019535;28;20173;-67
2022/12/08 10:17:39;;;;;;;5.43;1.57;;;;;;;;;;5023319;28;20223;-67
2022/12/08 10:20:15;;;;;;;4.77;1.73;;;;;;;;;;5023861;28;20179;-67
2022/12/08 10:22:42;;;;;;;3.43;1.40;;;;;;;;;;5014104;28;20206;-67
2022/12/08 10:25:17;;;;;;;2.40;1.53;;;;;;;;;;5013128;28;20190;-68
2022/12/08 10:27:42;;;;;;;3.00;1.50;;;;;;;;;;5015246;28;20281;-67
2022/12/08 10:30:12;;;;;;;3.47;1.87;;;;;;;;;;5019577;28;20296;-67
2022/12/08 10:32:38;;;;;;;3.93;2.37;;;;;;;;;;5020330;28;20255;-67
2022/12/08 10:35:12;;;;;;;6.13;2.70;;;;;;;;;;5016193;28;20194;-67
2022/12/08 10:37:38;;;;;;;3.13;1.80;;;;;;;;;;5013872;28;20170;-67
2022/12/08 10:40:17;;;;;;;7.17;1.80;;;;;;;;;;5013088;28;20266;-67
2022/12/08 10:42:47;;;;;;;5.10;2.83;;;;;;;;;;5017059;28;20537;-67
2022/12/08 10:45:18;;;;;;;3.43;2.43;;;;;;;;;;5013448;28;20266;-67
2022/12/08 10:47:55;;;;;;;5.27;2.93;;;;;;;;;;5013658;28;20222;-67
2022/12/08 10:50:33;;;;;;;9.80;4.13;;;;;;;;;;5017645;28;20587;-67
2022/12/08 10:53:11;;;;;;;14.10;6.33;;;;;;;;;;5016804;28;20182;-67
2022/12/08 10:56:02;;;;;;;7.50;3.20;;;;;;;;;;5013423;28;20182;-67
2022/12/08 10:58:45;;;;;;;17.53;7.20;;;;;;;;;;5014745;28;20167;-67
2022/12/08 11:01:36;;;;;;;20.43;7.60;;;;;;;;;;5012270;28;20709;-67
2022/12/08 11:04:04;;;;;;;37.17;13.00;;;;;;;;;;5013473;28;20210;-67
2022/12/08 11:06:34;;;;;;;18.97;8.03;;;;;;;;;;5012710;28;20186;-67
2022/12/08 11:09:06;;;;;;;7.27;4.00;;;;;;;;;;5010983;28;20353;-67
2022/12/08 11:11:55;;;;;;;5.80;3.30;;;;;;;;;;5015669;28;20186;-67
2022/12/08 11:14:32;;;;;;;4.90;3.50;;;;;;;;;;5012132;28;20170;-67
2022/12/08 11:17:08;;;;;;;4.80;3.63;;;;;;;;;;5013858;28;20206;-68
2022/12/08 11:19:59;;;;;;;5.03;3.70;;;;;;;;;;5013547;28;20385;-68
2022/12/08 11:22:32;;;;;;;5.70;3.80;;;;;;;;;;5012588;28;20187;-67
2022/12/08 11:25:02;;;;;;;5.23;4.60;;;;;;;;;;5011907;28;20185;-67
2022/12/08 11:27:27;;;;;;;6.90;4.60;;;;;;;;;;5011447;28;20203;-67
2022/12/08 11:29:53;;;;;;;7.57;4.93;;;;;;;;;;5016189;28;20670;-67
2022/12/08 11:32:19;;;;;;;8.33;4.70;;;;;;;;;;5016275;28;20789;-67
2022/12/08 11:35:05;;;;;;;10.97;5.43;;;;;;;;;;5013561;28;20712;-67
2022/12/08 11:37:40;;;;;;;6.87;5.27;;;;;;;;;;5016483;28;20189;-67
2022/12/08 11:40:17;;;;;;;6.07;4.50;;;;;;;;;;5011728;28;20663;-67
2022/12/08 11:43:17;;;;;;;7.33;4.17;;;;;;;;;;5013613;28;20171;-67
2022/12/08 11:45:43;;;;;;;5.60;3.50;;;;;;;;;;5011699;28;20187;-67
2022/12/08 11:48:17;;;;;;;6.60;3.80;;;;;;;;;;5014456;28;20285;-67
2022/12/08 11:50:51;;;;;;;4.43;3.70;;;;;;;;;;5015200;28;20258;-67
2022/12/08 11:53:27;;;;;;;5.97;4.13;;;;;;;;;;5021547;28;20180;-66
2022/12/08 11:55:57;;;;;;;10.10;4.37;;;;;;;;;;5015878;28;20187;-67
2022/12/08 11:58:35;;;;;;;7.03;3.97;;;;;;;;;;5018383;28;20198;-67
2022/12/08 12:01:00;;;;;;;7.67;4.50;;;;;;;;;;5013833;28;20206;-67
2022/12/08 12:03:42;;;;;;;3.60;3.20;;;;;;;;;;5012339;28;20545;-67
2022/12/08 12:06:28;;;;;;;6.40;3.80;;;;;;;;;;5036647;28;20182;-66
2022/12/08 12:09:15;;;;;;;6.27;3.50;;;;;;;;;;5039582;28;20200;-66
2022/12/08 12:12:12;;;;;;;6.00;3.57;;;;;;;;;;5020808;28;20184;-67
2022/12/08 12:14:59;;;;;;;6.77;3.57;;;;;;;;;;5036522;28;20185;-67
2022/12/08 12:17:42;;;;;;;5.23;3.80;;;;;;;;;;5026595;28;20504;-67
2022/12/08 12:20:32;;;;;;;4.03;3.20;;;;;;;;;;5022305;28;20213;-66
2022/12/08 12:23:04;;;;;;;5.83;3.20;;;;;;;;;;5023055;28;20178;-67
2022/12/08 12:25:31;;;;;;;3.97;3.50;;;;;;;;;;5024831;28;20650;-67
2022/12/08 12:28:02;;;;;;;3.90;3.10;;;;;;;;;;5022335;28;20680;-67
2022/12/08 12:30:50;;;;;;;3.50;2.50;;;;;;;;;;5027104;28;20178;-67
2022/12/08 12:33:18;;;;;;;5.53;2.63;;;;;;;;;;5027589;28;20201;-67
2022/12/08 12:35:46;;;;;;;3.60;2.30;;;;;;;;;;5021477;28;20189;-67
2022/12/08 12:41:09;;;;;;;2.70;2.03;;;;;;;;;;5012137;28;20518;-66
2022/12/08 12:43:37;;;;;;;4.63;2.10;;;;;;;;;;5025444;28;20677;-67
2022/12/08 12:46:21;;;;;;;4.17;1.93;;;;;;;;;;5025178;28;20201;-67
2022/12/08 12:48:47;;;;;;;4.17;2.30;;;;;;;;;;5022290;28;20191;-67
2022/12/08 12:51:40;;;;;;;4.33;2.10;;;;;;;;;;5024518;28;20248;-67
2022/12/08 12:54:25;;;;;;;2.67;1.90;;;;;;;;;;5025513;28;20177;-67
2022/12/08 12:57:03;;;;;;;3.67;2.03;;;;;;;;;;5025995;28;20543;-67
2022/12/08 12:59:28;;;;;;;4.73;2.10;;;;;;;;;;5025712;28;20198;-67
2022/12/08 13:01:54;;;;;;;2.83;1.90;;;;;;;;;;5011908;28;20224;-67
2022/12/08 13:04:29;;;;;;;2.90;2.10;;;;;;;;;;5027630;28;20182;-68
2022/12/08 13:06:55;;;;;;;4.20;2.03;;;;;;;;;;5012392;28;20420;-67
2022/12/08 13:09:33;;;;;;;4.50;2.00;;;;;;;;;;5007579;28;20202;-67
2022/12/08 13:12:08;;;;;;;4.77;2.20;;;;;;;;;;5016814;28;20258;-67
2022/12/08 13:14:36;;;;;;;4.87;2.40;;;;;;;;;;5013947;28;20182;-67
2022/12/08 13:17:06;;;;;;;5.33;2.07;;;;;;;;;;5022875;28;20178;-67
2022/12/08 13:19:34;;;;;;;5.17;2.40;;;;;;;;;;5010628;28;20202;-67
2022/12/08 13:22:00;;;;;;;3.27;2.27;;;;;;;;;;5026790;28;20186;-67
2022/12/08 13:24:29;;;;;;;3.10;2.27;;;;;;;;;;5020609;28;20182;-67
2022/12/08 13:27:03;;;;;;;4.73;2.67;;;;;;;;;;5024379;28;20169;-67
2022/12/08 13:29:30;;;;;;;3.90;2.80;;;;;;;;;;5022061;28;20678;-67
2022/12/08 13:32:00;;;;;;;3.53;2.43;;;;;;;;;;5013854;28;20224;-67
2022/12/08 13:34:55;;;;;;;4.23;2.50;;;;;;;;;;5017364;28;20193;-67
2022/12/08 13:37:43;;;;;;;3.20;2.60;;;;;;;;;;5025594;28;20178;-67
2022/12/08 13:40:15;;;;;;;3.13;2.20;;;;;;;;;;5018766;28;20698;-67
2022/12/08 13:42:43;;;;;;;4.93;2.70;;;;;;;;;;5018233;28;20278;-67
2022/12/08 13:45:11;;;;;;;4.00;2.63;;;;;;;;;;5019026;28;20225;-67
2022/12/08 13:47:43;;;;;;;3.30;2.87;;;;;;;;;;5027800;28;20186;-67
2022/12/08 13:50:20;;;;;;;4.30;2.63;;;;;;;;;;5023837;28;20201;-67
2022/12/08 13:52:57;;;;;;;3.23;2.83;;;;;;;;;;5023822;28;20201;-67
2022/12/08 13:55:39;;;;;;;4.60;3.20;;;;;;;;;;5027560;28;20190;-67
2022/12/08 13:58:04;;;;;;;6.40;3.40;;;;;;;;;;5025263;28;20182;-67
2022/12/08 14:00:30;;;;;;;9.60;5.47;;;;;;;;;;5024586;28;20220;-67
2022/12/08 14:02:58;;;;;;;18.00;10.07;;;;;;;;;;5026592;28;20660;-67
2022/12/08 14:05:26;;;;;;;9.23;5.07;;;;;;;;;;5016363;28;20753;-67
2022/12/08 14:07:55;;;;;;;8.27;4.80;;;;;;;;;;5018381;28;20229;-67
2022/12/08 14:10:29;;;;;;;10.57;6.43;;;;;;;;;;5018771;28;20185;-67
2022/12/08 14:12:58;;;;;;;9.87;4.80;;;;;;;;;;5025724;28;20189;-68
2022/12/08 14:15:24;;;;;;;4.33;2.77;;;;;;;;;;5033971;28;20270;-67
2022/12/08 14:17:55;;;;;;;5.37;2.70;;;;;;;;;;5015907;28;20193;-67
2022/12/08 14:20:32;;;;;;;4.53;3.30;;;;;;;;;;5010954;28;20236;-67
2022/12/08 14:22:58;;;;;;;3.13;2.53;;;;;;;;;;5027516;28;20186;-68
2022/12/08 14:25:28;;;;;;;3.10;2.30;;;;;;;;;;5012041;28;20197;-67
2022/12/08 14:28:02;;;;;;;2.73;2.40;;;;;;;;;;5008194;28;20286;-67
2022/12/08 14:30:31;;;;;;;3.00;2.70;;;;;;;;;;5008702;28;20375;-67
2022/12/08 14:32:58;;;;;;;3.20;2.90;;;;;;;;;;5020793;28;20301;-69
2022/12/08 14:35:37;;;;;;;3.67;2.53;;;;;;;;;;5034550;28;20194;-67
2022/12/08 14:38:14;;;;;;;3.27;2.73;;;;;;;;;;5025605;28;20178;-67
2022/12/08 14:40:48;;;;;;;3.70;2.60;;;;;;;;;;5006931;28;20637;-65
2022/12/08 14:43:19;;;;;;;4.00;2.60;;;;;;;;;;5036456;28;20181;-67
2022/12/08 14:45:44;;;;;;;4.37;2.13;;;;;;;;;;5013797;28;20557;-67
2022/12/08 14:48:32;;;;;;;5.97;2.23;;;;;;;;;;5016271;28;20261;-68
2022/12/08 14:51:04;;;;;;;2.73;2.10;;;;;;;;;;5006820;28;20190;-67
2022/12/08 14:54:08;;;;;;;5.03;2.40;;;;;;;;;;5018241;28;20186;-67
2022/12/08 14:56:39;;;;;;;8.90;2.20;;;;;;;;;;5010740;28;20197;-65